Airfield :
LOGIN :

Register | Disclaimer

   EN    FR    IT 

 










Legend :    VFR   Marginal VFR   IFR   Intensive IFR   Very Intensive IFR
Visi :
Ceiling :
>= 8 km
>= 3000ft
5 to 8 km
1000 to 3000 ft
1500m to 5 km
500 to 1000 ft
800 to 1500m
200 to 500 ft
< 800m
< 200 ft
Symbols :   Thunderstorms  Fog  Heavy snow  Heavy precipitations  Wind > 20 kt
SIGMETs :     Misc.  Thunderstorms  Icing  Turbulence  Mountain Waves  Volcanic Ashes







- Airport Elevation : 821 ft
- IATA code : LYS
- Download approach charts


LFLL - Lyon St Exupéry / Satolas

CURRENT METAR :
  • 231400Z 27009KT 230V320 9999 SCT062 FEW073TCU SCT090 17/07 Q1007 NOSIG

EXPIRED METARs :
  • 231330Z 12007KT 080V160 9999 FEW083TCU SCT083 SCT100 18/05 Q1007 NOSIG
  • 231300Z 09007KT 060V130 9999 SCT074 FEW083TCU BKN100 18/06 Q1007 NOSIG
  • 231230Z 11009KT 080V140 9999 SCT074 FEW083TCU BKN100 17/06 Q1007 NOSIG
  • 231200Z 13007KT 100V180 9999 FEW062 FEW083TCU SCT100 BKN210 17/06 Q1008 NOSIG
  • 231130Z 12010KT 090V160 9999 FEW062 FEW083TCU SCT100 BKN210 17/06 Q1008 NOSIG
  • 231100Z 12008KT 090V150 9999 FEW066 FEW100TCU SCT100 BKN210 16/06 Q1008 NOSIG

TAF TAF LFLL
Valid from the 23 at 12:00 until the 24 at 18:00 UTC


231100Z 2312/2418 14006KT 9999 SCT040TCU
TEMPO 2312/2320 20015G30KT 4500 SHRA FEW035CB BKN040TCU
PROB40
TEMPO 2313/2319 20020G40KT 2500 TSRA BKN030CB
PROB30
TEMPO 2313/2318 TSGR
BECMG 2320/2322 36010KT
TEMPO 2322/2410 -RA BKN014 OVC040
PROB30
TEMPO 2402/2408 BKN009
BECMG 2408/2410 BKN020
PROB40
TEMPO 2413/2418 SHRA
No reported NOTAMs for that airfield.
3 SIGMETs reported for the Marseille FIR (LFMM) :
 
Embedded thunderstorms
LFMM SIGMET 12 VALID 231400/231600 LFPW
LFMM MARSEILLE FIR/UIR EMBD TS OBS WI N4315 E00230 - N4545 E00300 - N4615 E00430 - N4415 E00445 - N4215 E00315 TOP FL320 MOV N 15KT NC=
Severe turbulence
LFMM SIGMET 11 VALID 231300/231600 LFPW
LFMM MARSEILLE FIR/UIR SEV TURB FCST WI N4400 E00245 - N4530 E00300 - N4600 E00345 - N4530 E00600 - N4400 E00545 SFC/FL060 STNR NC=
Embedded thunderstorms
LFMM SIGMET 10 VALID 231200/231400 LFPW
LFMM MARSEILLE FIR/UIR EMBD TS OBS WI N4330 E00245 - N4600 E00300 - N4615 E00430 - N4415 E00445 - N4230 E00315 TOP FL320 STNR NC=



MET'MAP, your aeronautical weather chart ! - Copyright ORBIFLY December 2007 - Disclaimer

ORBIFLY MET'MAP TEAM :

Programming & Development : Alexandra Zaïnal
Concept & Development : Baudouin d'Aumeries
Co-Development & Prog : Marc-Olivier Méhu
Technical & hardware support : Manuel Goepfert

Contact : metmap@orbifly.com




SOURCES & CREDITS :

   NOAA